createdAt,value
2022-09-10T00:00:48.990Z,99689.53
2022-09-10T00:06:10.414Z,99695.16
2022-09-10T00:11:21.501Z,99694.05
2022-09-10T00:16:27.067Z,99689.64
2022-09-10T00:21:31.168Z,99685.71
2022-09-10T00:26:39.934Z,99684.48
2022-09-10T00:31:45.715Z,99684.65
2022-09-10T00:36:50.572Z,99681.30
2022-09-10T00:41:55.862Z,99682.02
2022-09-10T00:47:00.074Z,99673.80
2022-09-10T00:52:06.379Z,99675.30
2022-09-10T00:57:17.712Z,99679.48
2022-09-10T01:02:22.317Z,99673.79
2022-09-10T01:07:29.625Z,99667.79
2022-09-10T01:12:45.539Z,99660.97
2022-09-10T01:18:14.342Z,99656.61
2022-09-10T01:23:42.845Z,99654.86
2022-09-10T01:29:25.302Z,99654.04
2022-09-10T01:34:55.981Z,99650.60
2022-09-10T01:40:02.012Z,99641.48
2022-09-10T01:45:07.220Z,99632.98
2022-09-10T01:50:40.169Z,99640.79
2022-09-10T01:56:04.481Z,99649.27
2022-09-10T02:01:25.983Z,99652.48
2022-09-10T02:06:36.989Z,99652.98
2022-09-10T02:11:59.743Z,99651.31
2022-09-10T02:17:03.258Z,99652.02
2022-09-10T02:22:08.800Z,99645.73
2022-09-10T02:27:15.978Z,99637.31
2022-09-10T02:32:20.158Z,99631.36
2022-09-10T02:37:24.890Z,99623.64
2022-09-10T02:42:28.915Z,99623.05
2022-09-10T02:47:33.204Z,99617.55
2022-09-10T02:52:37.802Z,99620.95
2022-09-10T02:57:42.487Z,99627.39
2022-09-10T03:02:48.667Z,99628.48
2022-09-10T03:07:56.361Z,99631.30
2022-09-10T03:13:00.596Z,99628.91
2022-09-10T03:18:04.651Z,99630.68
2022-09-10T03:23:12.044Z,99632.22
2022-09-10T03:28:17.415Z,99632.73
2022-09-10T03:33:22.722Z,99629.93
2022-09-10T03:38:28.163Z,99626.45
2022-09-10T03:43:32.096Z,99614.90
2022-09-10T03:48:35.587Z,99601.87
2022-09-10T03:53:39.802Z,99589.52
2022-09-10T03:58:44.357Z,99584.15
2022-09-10T04:03:49.107Z,99583.34
2022-09-10T04:08:53.316Z,99588.71
2022-09-10T04:13:58.271Z,99586.14
2022-09-10T04:19:03.025Z,99576.09
2022-09-10T04:24:10.885Z,99575.83
2022-09-10T04:29:16.840Z,99581.63
2022-09-10T04:34:20.824Z,99577.23
2022-09-10T04:39:25.335Z,99577.05
2022-09-10T04:44:29.989Z,99575.95
2022-09-10T04:49:35.242Z,99574.66
2022-09-10T04:54:42.481Z,99576.63
2022-09-10T04:59:47.170Z,99578.65
2022-09-10T05:04:51.932Z,99573.95
2022-09-10T05:09:58.110Z,99564.83
2022-09-10T05:15:07.225Z,99563.59
2022-09-10T05:20:11.715Z,99567.67
2022-09-10T05:25:16.331Z,99564.51
2022-09-10T05:30:20.625Z,99567.71
2022-09-10T05:35:24.552Z,99559.03
2022-09-10T05:40:29.965Z,99562.95
2022-09-10T05:45:34.723Z,99561.75
2022-09-10T05:50:39.192Z,99563.31
2022-09-10T05:55:44.334Z,99560.86
2022-09-10T06:00:52.166Z,99563.59
2022-09-10T06:05:56.199Z,99564.50
2022-09-10T06:11:04.020Z,99568.91
2022-09-10T06:16:09.480Z,99564.78
2022-09-10T06:21:17.638Z,99562.73
2022-09-10T06:26:21.983Z,99568.43
2022-09-10T06:31:25.829Z,99566.45
2022-09-10T06:36:30.266Z,99560.59
2022-09-10T06:41:35.645Z,99563.96
2022-09-10T06:47:16.092Z,99573.57
2022-09-10T06:52:05.132Z,99580.88
2022-09-10T06:57:09.037Z,99585.12
2022-09-10T07:02:13.513Z,99578.50
2022-09-10T07:07:18.843Z,99568.69
2022-09-10T07:12:24.742Z,99560.15
2022-09-10T07:17:31.879Z,99561.93
2022-09-10T07:22:38.933Z,99563.20
2022-09-10T07:27:44.412Z,99585.12
2022-09-10T07:32:51.584Z,99589.73
2022-09-10T07:37:58.245Z,99587.85
2022-09-10T07:43:03.684Z,99602.02
2022-09-10T07:48:09.056Z,99600.80
2022-09-10T07:53:14.294Z,99590.02
2022-09-10T07:58:18.411Z,99588.50
2022-09-10T08:03:23.284Z,99591.02
2022-09-10T08:08:33.223Z,99585.81
2022-09-10T08:13:38.249Z,99577.54
2022-09-10T08:18:44.138Z,99575.07
2022-09-10T08:23:55.074Z,99574.27
2022-09-10T08:29:00.088Z,99568.69
2022-09-10T08:34:05.004Z,99569.86
2022-09-10T08:39:09.281Z,99572.27
2022-09-10T08:44:37.766Z,99569.70
2022-09-10T08:49:48.607Z,99571.75
2022-09-10T08:55:17.199Z,99584.52
2022-09-10T09:00:34.396Z,99589.63
2022-09-10T09:05:55.597Z,99588.83
2022-09-10T09:11:11.640Z,99588.47
2022-09-10T09:16:48.030Z,99576.79
2022-09-10T09:21:54.880Z,99575.61
2022-09-10T09:27:10.663Z,99577.11
2022-09-10T09:32:18.459Z,99566.10
2022-09-10T09:37:30.611Z,99564.04
2022-09-10T09:43:46.047Z,99560.80
2022-09-10T09:48:53.099Z,99554.95
2022-09-10T09:54:38.931Z,99551.15
2022-09-10T09:59:27.456Z,99541.30
2022-09-10T10:04:37.064Z,99538.96
2022-09-10T10:09:44.084Z,99538.48
2022-09-10T10:14:46.929Z,99533.33
2022-09-10T10:20:09.231Z,99534.85
2022-09-10T10:25:34.283Z,99532.60
2022-09-10T10:30:41.704Z,99529.96
2022-09-10T10:36:00.237Z,99528.41
2022-09-10T10:41:10.083Z,99532.39
2022-09-10T10:46:22.197Z,99529.05
2022-09-10T10:51:51.146Z,99529.36
2022-09-10T10:57:28.378Z,99526.81
2022-09-10T11:02:45.654Z,99527.66
2022-09-10T11:07:48.446Z,99522.46
2022-09-10T11:13:06.701Z,99520.69
2022-09-10T11:18:20.814Z,99523.39
2022-09-10T11:23:46.159Z,99520.57
2022-09-10T11:29:25.831Z,99516.41
2022-09-10T11:34:52.032Z,99515.48
2022-09-10T11:39:58.825Z,99513.79
2022-09-10T11:45:23.074Z,99513.30
2022-09-10T11:50:36.306Z,99508.73
2022-09-10T11:55:50.811Z,99500.30
2022-09-10T12:01:02.394Z,99493.82
2022-09-10T12:06:17.763Z,99495.25
2022-09-10T12:11:44.132Z,99492.34
2022-09-10T12:17:03.079Z,99490.47
2022-09-10T12:22:16.769Z,99488.29
2022-09-10T12:27:21.364Z,99488.69
2022-09-10T12:32:28.384Z,99487.00
2022-09-10T12:37:30.588Z,99482.91
2022-09-10T12:42:37.046Z,99483.50
2022-09-10T12:47:46.682Z,99483.05
2022-09-10T12:52:52.506Z,99477.98
2022-09-10T12:58:28.923Z,99474.48
2022-09-10T13:03:32.766Z,99473.14
2022-09-10T13:08:44.066Z,99469.33
2022-09-10T13:13:56.317Z,99472.40
2022-09-10T13:19:14.671Z,99465.02
2022-09-10T13:24:37.810Z,99459.79
2022-09-10T13:29:44.487Z,99456.91
2022-09-10T13:35:05.054Z,99446.70
2022-09-10T13:40:27.680Z,99442.65
2022-09-10T13:45:41.981Z,99439.77
2022-09-10T13:51:01.247Z,99439.39
2022-09-10T13:56:17.998Z,99440.85
2022-09-10T14:01:41.029Z,99437.82
2022-09-10T14:06:51.350Z,99431.48
2022-09-10T14:11:57.435Z,99424.05
2022-09-10T14:17:32.961Z,99418.19
2022-09-10T14:22:39.284Z,99412.17
2022-09-10T14:27:45.204Z,99412.20
2022-09-10T14:32:49.725Z,99410.86
2022-09-10T14:37:53.116Z,99405.87
2022-09-10T14:43:15.400Z,99405.02
2022-09-10T14:49:01.293Z,99404.15
2022-09-10T14:54:03.379Z,99406.11
2022-09-10T14:59:30.666Z,99407.39
2022-09-10T15:04:32.724Z,99404.45
2022-09-10T15:09:35.105Z,99403.89
2022-09-10T15:14:37.619Z,99403.85
2022-09-10T15:19:41.502Z,99406.84
2022-09-10T15:25:07.946Z,99404.33
2022-09-10T15:30:08.090Z,99403.94
2022-09-10T15:35:10.101Z,99402.15
2022-09-10T15:40:13.302Z,99407.02
2022-09-10T15:45:19.183Z,99405.92
2022-09-10T15:50:23.515Z,99407.98
2022-09-10T15:55:28.096Z,99410.11
2022-09-10T16:00:31.140Z,99410.77
2022-09-10T16:05:34.992Z,99417.69
2022-09-10T16:10:40.905Z,99419.05
2022-09-10T16:15:44.442Z,99424.02
2022-09-10T16:20:46.966Z,99425.73
2022-09-10T16:25:55.383Z,99423.13
2022-09-10T16:30:59.270Z,99428.14
2022-09-10T16:36:06.838Z,99425.38
2022-09-10T16:41:13.262Z,99425.16
2022-09-10T16:46:17.448Z,99426.02
2022-09-10T16:51:23.658Z,99419.30
2022-09-10T16:56:25.968Z,99413.41
2022-09-10T17:01:31.383Z,99413.50
2022-09-10T17:06:35.615Z,99409.55
2022-09-10T17:11:38.404Z,99413.05
2022-09-10T17:16:44.476Z,99416.67
2022-09-10T17:21:50.693Z,99424.70
2022-09-10T17:26:55.327Z,99428.67
2022-09-10T17:31:58.428Z,99430.94
2022-09-10T17:37:02.362Z,99437.35
2022-09-10T17:42:05.091Z,99440.36
2022-09-10T17:47:09.662Z,99436.92
2022-09-10T17:52:15.627Z,99433.39
2022-09-10T17:57:20.428Z,99431.30
2022-09-10T18:02:24.115Z,99429.31
2022-09-10T18:07:28.769Z,99429.27
2022-09-10T18:12:32.003Z,99423.73
2022-09-10T18:17:34.382Z,99425.25
2022-09-10T18:22:38.314Z,99427.58
2022-09-10T18:27:43.377Z,99427.33
2022-09-10T18:32:48.477Z,99430.18
2022-09-10T18:37:52.502Z,99433.57
2022-09-10T18:42:55.284Z,99436.42
2022-09-10T18:47:58.115Z,99441.48
2022-09-10T18:53:01.328Z,99444.63
2022-09-10T18:58:03.529Z,99447.02
2022-09-10T19:03:08.423Z,99448.68
2022-09-10T19:08:12.240Z,99449.86
2022-09-10T19:13:15.542Z,99441.77
2022-09-10T19:18:19.200Z,99435.09
2022-09-10T19:23:26.169Z,99432.36
2022-09-10T19:28:35.665Z,99431.92
2022-09-10T19:33:43.240Z,99435.10
2022-09-10T19:38:50.222Z,99433.00
2022-09-10T19:43:53.343Z,99428.60
2022-09-10T19:48:59.062Z,99425.43
2022-09-10T19:54:03.837Z,99423.73
2022-09-10T19:59:11.439Z,99419.43
2022-09-10T20:04:16.394Z,99420.71
2022-09-10T20:09:19.297Z,99422.27
2022-09-10T20:14:22.765Z,99422.38
2022-09-10T20:19:29.307Z,99421.91
2022-09-10T20:24:37.083Z,99419.29
2022-09-10T20:29:39.765Z,99417.54
2022-09-10T20:34:43.175Z,99416.25
2022-09-10T20:39:49.086Z,99415.23
2022-09-10T20:44:51.939Z,99414.85
2022-09-10T20:49:54.044Z,99412.17
2022-09-10T20:54:56.353Z,99412.77
2022-09-10T20:59:59.218Z,99412.17
2022-09-10T21:05:02.627Z,99407.61
2022-09-10T21:10:05.157Z,99407.35
2022-09-10T21:15:08.508Z,99403.69
2022-09-10T21:20:12.736Z,99397.15
2022-09-10T21:25:15.640Z,99393.48
2022-09-10T21:30:19.039Z,99394.02
2022-09-10T21:35:23.308Z,99392.25
2022-09-10T21:40:25.910Z,99397.09
2022-09-10T21:45:28.716Z,99396.98
2022-09-10T21:50:31.948Z,99399.98
2022-09-10T21:55:34.589Z,99401.55
2022-09-10T22:00:40.408Z,99405.25
2022-09-10T22:05:43.899Z,99402.46
2022-09-10T22:10:47.088Z,99396.83
2022-09-10T22:15:51.588Z,99400.31
2022-09-10T22:21:01.779Z,99395.17
2022-09-10T22:26:26.086Z,99398.73
2022-09-10T22:31:35.122Z,99402.01
2022-09-10T22:36:40.163Z,99402.55
2022-09-10T22:41:43.780Z,99396.31
2022-09-10T22:46:47.385Z,99387.79
2022-09-10T22:51:51.104Z,99391.86
2022-09-10T22:56:54.156Z,99388.97
2022-09-10T23:01:57.035Z,99387.03
2022-09-10T23:07:00.902Z,99389.55
2022-09-10T23:12:03.478Z,99388.32
2022-09-10T23:17:06.000Z,99388.11
2022-09-10T23:22:10.841Z,99387.73
2022-09-10T23:27:14.030Z,99389.34
2022-09-10T23:32:16.810Z,99388.69
2022-09-10T23:37:19.572Z,99388.44
2022-09-10T23:42:23.134Z,99384.73
2022-09-10T23:47:25.647Z,99377.97
2022-09-10T23:52:28.414Z,99374.10
2022-09-10T23:57:31.250Z,99371.48
